createdAt,value
2019-04-30T00:04:22.731Z,99.90
2019-04-30T00:09:28.528Z,99.90
2019-04-30T00:19:38.854Z,99.90
2019-04-30T00:22:15.801Z,99.90
2019-04-30T00:24:49.675Z,99.90
2019-04-30T00:29:52.846Z,99.90
2019-04-30T00:32:25.771Z,99.90
2019-04-30T00:34:57.674Z,99.90
2019-04-30T00:45:10.150Z,99.90
2019-04-30T01:08:07.103Z,99.90
2019-04-30T01:20:50.445Z,99.90
2019-04-30T01:36:04.206Z,99.90
2019-04-30T01:43:40.567Z,99.90
2019-04-30T01:46:13.878Z,99.90
2019-04-30T01:48:47.648Z,99.90
2019-04-30T02:03:56.315Z,99.90
2019-04-30T02:11:31.440Z,99.90
2019-04-30T02:14:02.495Z,99.90
2019-04-30T02:16:33.514Z,99.90
2019-04-30T02:21:33.563Z,99.90
2019-04-30T02:26:35.218Z,99.90
2019-04-30T02:29:05.573Z,99.90
2019-04-30T02:31:35.678Z,99.90
2019-04-30T02:34:10.305Z,99.90
2019-04-30T02:36:44.509Z,99.90
2019-04-30T02:41:50.658Z,99.90
2019-04-30T02:44:23.814Z,99.90
2019-04-30T02:47:00.285Z,99.90
2019-04-30T02:49:33.243Z,99.90
2019-04-30T02:52:04.846Z,99.90
2019-04-30T02:54:40.338Z,99.90
2019-04-30T02:57:12.198Z,99.90
2019-04-30T03:02:32.545Z,99.90
2019-04-30T03:05:03.016Z,99.90
2019-04-30T03:07:33.122Z,99.90
2019-04-30T03:10:10.012Z,99.90
2019-04-30T03:12:40.870Z,99.90
2019-04-30T03:15:11.397Z,99.90
2019-04-30T03:17:43.144Z,99.90
2019-04-30T03:27:51.979Z,99.90
2019-04-30T03:30:24.061Z,99.90
2019-04-30T03:32:56.959Z,99.90
2019-04-30T03:35:31.762Z,99.90
2019-04-30T03:38:00.678Z,99.90
2019-04-30T03:40:31.780Z,99.90
2019-04-30T03:48:22.057Z,99.90
2019-04-30T03:50:56.740Z,99.90
2019-04-30T03:53:43.089Z,99.90
2019-04-30T03:56:14.124Z,99.90
2019-04-30T03:58:44.232Z,99.90
2019-04-30T04:01:26.346Z,99.90
2019-04-30T04:04:06.827Z,99.90
2019-04-30T04:07:11.063Z,99.90
2019-04-30T04:10:04.498Z,99.90
2019-04-30T04:12:36.526Z,99.90
2019-04-30T04:15:11.887Z,99.90
2019-04-30T04:20:20.224Z,99.90
2019-04-30T04:25:43.673Z,99.90
2019-04-30T04:28:22.733Z,99.90
2019-04-30T04:30:52.839Z,99.90
2019-04-30T04:33:29.534Z,99.90
2019-04-30T04:36:02.891Z,99.90
2019-04-30T04:38:33.922Z,99.90
2019-04-30T04:41:06.004Z,99.90
2019-04-30T04:43:45.214Z,99.90
2019-04-30T04:46:15.340Z,99.90
2019-04-30T04:49:00.623Z,99.90
2019-04-30T04:51:39.531Z,99.90
2019-04-30T04:54:10.364Z,99.90
2019-04-30T04:56:53.405Z,99.90
2019-04-30T04:59:49.919Z,99.90
2019-04-30T05:02:32.210Z,99.90
2019-04-30T05:07:32.970Z,99.90
2019-04-30T05:10:09.175Z,99.90
2019-04-30T05:12:40.392Z,99.90
2019-04-30T05:15:10.899Z,99.90
2019-04-30T05:20:25.622Z,99.90
2019-04-30T05:22:55.742Z,99.90
2019-04-30T05:25:45.223Z,99.90
2019-04-30T05:28:30.468Z,99.90
2019-04-30T05:31:02.532Z,99.90
2019-04-30T05:33:32.627Z,99.90
2019-04-30T05:38:33.402Z,99.90
2019-04-30T05:41:23.258Z,99.90
2019-04-30T05:43:55.434Z,99.90
2019-04-30T05:46:36.187Z,99.90
2019-04-30T05:49:13.206Z,99.90
2019-04-30T05:51:56.008Z,99.90
2019-04-30T05:54:32.978Z,99.90
2019-04-30T05:57:04.102Z,99.90
2019-04-30T05:59:35.182Z,99.90
2019-04-30T06:04:50.910Z,99.90
2019-04-30T06:07:29.953Z,99.90
2019-04-30T06:10:03.043Z,99.90
2019-04-30T06:12:39.156Z,99.90
2019-04-30T06:15:11.729Z,99.90
2019-04-30T06:17:43.948Z,99.90
2019-04-30T06:20:20.427Z,99.90
2019-04-30T06:22:57.226Z,99.90
2019-04-30T06:25:35.495Z,99.90
2019-04-30T06:27:59.844Z,99.90
2019-04-30T06:36:00.955Z,99.90
2019-04-30T06:38:31.093Z,99.90
2019-04-30T06:41:02.895Z,99.90
2019-04-30T06:46:05.779Z,99.90
2019-04-30T06:48:39.253Z,99.90
2019-04-30T06:51:09.725Z,99.90
2019-04-30T06:53:40.746Z,99.90
2019-04-30T07:03:41.210Z,99.90
2019-04-30T07:08:51.961Z,99.90
2019-04-30T07:11:29.322Z,99.90
2019-04-30T07:14:00.102Z,99.90
2019-04-30T07:16:30.229Z,99.90
2019-04-30T07:21:36.484Z,99.90
2019-04-30T07:26:33.893Z,99.90
2019-04-30T07:29:07.080Z,99.90
2019-04-30T07:31:39.139Z,99.90
2019-04-30T07:36:48.425Z,99.90
2019-04-30T07:39:13.590Z,99.90
2019-04-30T07:41:45.760Z,99.90
2019-04-30T07:44:31.156Z,99.90
2019-04-30T07:46:53.922Z,99.90
2019-04-30T07:49:24.071Z,99.90
2019-04-30T07:51:54.821Z,99.90
2019-04-30T07:54:30.966Z,99.90
2019-04-30T07:57:01.180Z,99.90
2019-04-30T07:59:31.239Z,99.90
2019-04-30T08:02:13.825Z,99.90
2019-04-30T08:04:59.903Z,99.90
2019-04-30T08:07:36.210Z,99.90
2019-04-30T08:10:08.821Z,99.90
2019-04-30T08:12:49.722Z,99.90
2019-04-30T08:18:02.671Z,99.90
2019-04-30T08:20:25.738Z,99.90
2019-04-30T08:23:03.092Z,99.90
2019-04-30T08:25:30.710Z,99.90
2019-04-30T08:28:00.808Z,99.90
2019-04-30T08:33:02.614Z,99.90
2019-04-30T08:35:32.714Z,99.90
2019-04-30T08:38:03.834Z,99.90
2019-04-30T08:40:33.935Z,99.90
2019-04-30T08:43:11.630Z,99.90
2019-04-30T08:45:53.827Z,99.90
2019-04-30T08:48:40.860Z,99.90
2019-04-30T08:50:59.143Z,99.90
2019-04-30T08:53:33.752Z,99.90
2019-04-30T08:58:35.223Z,97.50
2019-04-30T09:03:44.883Z,99.90
2019-04-30T09:06:16.660Z,99.90
2019-04-30T09:08:48.878Z,99.90
2019-04-30T09:11:24.747Z,99.90
2019-04-30T09:13:51.798Z,99.90
2019-04-30T09:16:21.914Z,99.90
2019-04-30T09:18:59.497Z,99.90
2019-04-30T09:21:35.464Z,99.90
2019-04-30T09:24:05.658Z,99.90
2019-04-30T09:26:44.806Z,99.90
2019-04-30T09:29:15.858Z,99.90
2019-04-30T09:31:51.930Z,99.90
2019-04-30T09:34:22.051Z,99.90
2019-04-30T09:36:52.176Z,99.90
2019-04-30T09:47:02.070Z,99.90
2019-04-30T09:49:34.118Z,99.90
2019-04-30T09:54:35.180Z,99.90
2019-04-30T09:57:05.339Z,99.90
2019-04-30T09:59:36.446Z,99.90
2019-04-30T10:02:09.154Z,99.90
2019-04-30T10:12:15.394Z,99.90
2019-04-30T10:14:46.469Z,99.90
2019-04-30T10:17:26.826Z,99.90
2019-04-30T10:19:57.856Z,99.90
2019-04-30T10:22:27.954Z,99.90
2019-04-30T10:35:13.350Z,99.90
2019-04-30T10:37:44.246Z,99.90
2019-04-30T10:40:20.146Z,99.90
2019-04-30T10:42:52.994Z,99.90
2019-04-30T10:47:53.737Z,99.90
2019-04-30T10:50:32.974Z,99.90
2019-04-30T10:53:04.399Z,99.90
2019-04-30T10:55:34.482Z,99.90
2019-04-30T11:03:19.123Z,99.90
2019-04-30T11:05:44.380Z,99.90
2019-04-30T11:08:14.486Z,98.60
2019-04-30T11:18:16.679Z,97.30
2019-04-30T11:20:49.769Z,95.80
2019-04-30T11:23:29.096Z,96.20
2019-04-30T11:26:00.707Z,95.20
2019-04-30T11:28:31.593Z,93.60
2019-04-30T11:34:00.698Z,93.80
2019-04-30T11:36:30.820Z,93.10
2019-04-30T11:39:10.908Z,92.90
2019-04-30T11:44:10.702Z,98.00
2019-04-30T11:47:03.478Z,98.90
2019-04-30T11:49:33.580Z,96.60
2019-04-30T11:52:09.826Z,97.30
2019-04-30T11:54:49.213Z,98.20
2019-04-30T11:57:13.682Z,95.40
2019-04-30T12:02:21.208Z,96.00
2019-04-30T12:04:51.182Z,94.60
2019-04-30T12:07:26.798Z,97.70
2019-04-30T12:13:04.018Z,94.60
2019-04-30T12:15:35.448Z,92.90
2019-04-30T12:23:11.759Z,95.60
2019-04-30T12:25:41.706Z,95.60
2019-04-30T12:30:41.518Z,89.80
2019-04-30T12:33:16.727Z,81.00
2019-04-30T12:35:49.175Z,80.80
2019-04-30T12:38:19.636Z,77.80
2019-04-30T12:40:51.230Z,79.50
2019-04-30T12:43:21.332Z,70.50
2019-04-30T12:46:02.289Z,68.50
2019-04-30T12:48:26.792Z,67.40
2019-04-30T12:51:16.802Z,72.70
2019-04-30T12:56:39.946Z,85.70
2019-04-30T12:59:10.070Z,85.70
2019-04-30T13:01:42.302Z,90.30
2019-04-30T13:04:19.384Z,94.10
2019-04-30T13:06:52.144Z,91.50
2019-04-30T13:09:23.028Z,93.10
2019-04-30T13:14:25.639Z,89.60
2019-04-30T13:16:58.920Z,90.30
2019-04-30T13:19:28.815Z,83.50
2019-04-30T13:21:59.895Z,82.60
2019-04-30T13:24:32.689Z,78.80
2019-04-30T13:27:03.826Z,81.70
2019-04-30T13:29:35.565Z,85.30
2019-04-30T13:32:06.030Z,90.40
2019-04-30T13:34:47.382Z,91.20
2019-04-30T13:37:19.206Z,92.80
2019-04-30T13:40:14.842Z,93.00
2019-04-30T13:42:46.582Z,91.50
2019-04-30T13:47:49.199Z,85.40
2019-04-30T13:52:54.883Z,90.50
2019-04-30T14:00:27.035Z,71.00
2019-04-30T14:03:01.476Z,60.60
2019-04-30T14:13:11.055Z,61.70
2019-04-30T14:15:45.771Z,63.00
2019-04-30T14:20:53.634Z,72.40
2019-04-30T14:23:23.739Z,67.00
2019-04-30T14:28:29.171Z,73.60
2019-04-30T14:33:30.996Z,76.90
2019-04-30T14:41:08.736Z,70.20
2019-04-30T14:43:45.035Z,72.50
2019-04-30T14:46:35.740Z,75.40
2019-04-30T14:49:23.856Z,76.80
2019-04-30T14:51:56.666Z,76.70
2019-04-30T14:54:39.488Z,78.00
2019-04-30T14:57:23.258Z,75.00
2019-04-30T15:02:50.031Z,66.20
2019-04-30T15:05:19.581Z,63.90
2019-04-30T15:10:21.548Z,60.80
2019-04-30T15:12:53.607Z,56.80
2019-04-30T15:15:23.735Z,52.10
2019-04-30T15:17:55.875Z,54.20
2019-04-30T15:20:31.887Z,51.80
2019-04-30T15:23:10.511Z,49.60
2019-04-30T15:25:40.639Z,48.40
2019-04-30T15:30:48.834Z,48.10
2019-04-30T15:33:27.763Z,49.60
2019-04-30T15:36:00.896Z,51.40
2019-04-30T15:41:19.731Z,52.00
2019-04-30T15:43:56.603Z,48.40
2019-04-30T15:46:32.552Z,47.20
2019-04-30T15:49:04.039Z,45.60
2019-04-30T15:51:34.138Z,41.50
2019-04-30T15:59:13.831Z,44.00
2019-04-30T16:01:54.427Z,47.10
2019-04-30T16:07:09.527Z,47.70
2019-04-30T16:09:42.607Z,47.90
2019-04-30T16:12:14.344Z,49.20
2019-04-30T16:14:44.419Z,50.20
2019-04-30T16:17:22.185Z,52.10
2019-04-30T16:19:54.279Z,55.20
2019-04-30T16:22:29.230Z,54.40
2019-04-30T16:25:00.675Z,54.10
2019-04-30T16:27:30.948Z,55.70
2019-04-30T16:30:05.423Z,57.30
2019-04-30T16:35:08.922Z,58.60
2019-04-30T16:42:40.499Z,59.60
2019-04-30T16:47:48.003Z,63.40
2019-04-30T16:50:29.928Z,62.50
2019-04-30T16:55:31.685Z,64.60
2019-04-30T16:58:01.780Z,63.40
2019-04-30T17:05:43.435Z,54.20
2019-04-30T17:11:02.757Z,49.40
2019-04-30T17:13:45.159Z,47.00
2019-04-30T17:16:16.927Z,46.90
2019-04-30T17:18:49.245Z,47.10
2019-04-30T17:21:19.726Z,46.80
2019-04-30T17:23:58.826Z,45.90
2019-04-30T17:26:29.848Z,47.10
2019-04-30T17:31:33.251Z,47.50
2019-04-30T17:34:05.384Z,47.40
2019-04-30T17:36:36.507Z,48.20
2019-04-30T17:39:14.277Z,48.00
2019-04-30T17:41:52.369Z,49.30
2019-04-30T17:44:23.510Z,49.30
2019-04-30T17:46:53.531Z,48.90
2019-04-30T17:49:31.675Z,49.30
2019-04-30T17:52:03.339Z,50.30
2019-04-30T17:54:34.421Z,50.10
2019-04-30T17:57:05.487Z,51.90
2019-04-30T18:02:07.111Z,52.00
2019-04-30T18:04:42.451Z,52.20
2019-04-30T18:07:12.547Z,52.90
2019-04-30T18:12:13.368Z,54.50
2019-04-30T18:14:43.463Z,55.00
2019-04-30T18:17:13.555Z,55.80
2019-04-30T18:22:23.459Z,57.50
2019-04-30T18:25:02.095Z,57.60
2019-04-30T18:27:45.276Z,59.00
2019-04-30T18:37:39.722Z,63.50
2019-04-30T18:40:10.227Z,64.50
2019-04-30T18:42:40.327Z,65.20
2019-04-30T18:47:48.933Z,72.80
2019-04-30T18:50:19.231Z,83.90
2019-04-30T18:52:50.937Z,94.20
2019-04-30T18:55:21.023Z,99.90
2019-04-30T19:00:29.412Z,99.90
2019-04-30T19:03:00.559Z,99.90
2019-04-30T19:05:39.353Z,99.90
2019-04-30T19:11:18.829Z,99.90
2019-04-30T19:14:06.974Z,99.90
2019-04-30T19:16:49.529Z,99.90
2019-04-30T19:24:23.360Z,99.90
2019-04-30T19:26:53.447Z,99.90
2019-04-30T19:29:31.559Z,99.90
2019-04-30T19:32:01.647Z,99.90
2019-04-30T19:34:33.709Z,99.90
2019-04-30T19:37:03.797Z,99.90
2019-04-30T19:39:33.913Z,99.90
2019-04-30T19:42:04.075Z,99.90
2019-04-30T19:44:40.269Z,99.90
2019-04-30T19:47:11.195Z,99.90
2019-04-30T19:49:41.283Z,99.90
2019-04-30T19:54:42.283Z,99.90
2019-04-30T19:57:12.372Z,99.90
2019-04-30T19:59:43.431Z,99.90
2019-04-30T20:02:14.475Z,99.90
2019-04-30T20:04:44.565Z,99.90
2019-04-30T20:07:14.675Z,99.90
2019-04-30T20:12:19.187Z,99.90
2019-04-30T20:19:49.527Z,99.90
2019-04-30T20:22:20.035Z,99.90
2019-04-30T20:40:14.563Z,99.90
2019-04-30T20:42:44.675Z,99.90
2019-04-30T20:45:14.919Z,99.90
2019-04-30T20:47:46.961Z,99.90
2019-04-30T20:52:49.098Z,99.90
2019-04-30T20:55:22.192Z,99.90
2019-04-30T20:57:52.287Z,99.90
2019-04-30T21:00:26.361Z,99.90
2019-04-30T21:02:56.453Z,99.90
2019-04-30T21:05:26.656Z,99.90
2019-04-30T21:07:57.704Z,99.90
2019-04-30T21:10:29.651Z,99.90
2019-04-30T21:20:38.649Z,99.90
2019-04-30T21:30:43.136Z,99.90
2019-04-30T21:33:14.907Z,99.90
2019-04-30T21:41:04.683Z,99.90
2019-04-30T21:43:40.631Z,99.90
2019-04-30T21:46:21.740Z,99.90
2019-04-30T21:48:51.843Z,99.90
2019-04-30T21:51:23.893Z,99.90
2019-04-30T21:54:00.880Z,99.90
2019-04-30T21:56:37.983Z,99.90
2019-04-30T21:59:08.068Z,99.90
2019-04-30T22:04:08.179Z,99.90
2019-04-30T22:06:39.438Z,99.90
2019-04-30T22:09:15.410Z,99.90
2019-04-30T22:16:51.738Z,99.90
2019-04-30T22:19:21.827Z,99.90
2019-04-30T22:21:51.907Z,99.90
2019-04-30T22:24:22.985Z,99.90
2019-04-30T22:26:53.073Z,99.90
2019-04-30T22:29:37.042Z,99.90
2019-04-30T22:31:56.880Z,99.90
2019-04-30T22:34:27.027Z,99.90
2019-04-30T22:39:39.613Z,99.90
2019-04-30T22:47:31.364Z,99.90
2019-04-30T22:50:01.547Z,99.90
2019-04-30T22:52:33.619Z,99.90
2019-04-30T22:55:04.247Z,99.90
2019-04-30T22:57:36.299Z,99.90
2019-04-30T23:00:11.496Z,99.90
2019-04-30T23:02:51.919Z,99.90
2019-04-30T23:05:21.995Z,99.90
2019-04-30T23:07:54.700Z,99.90
2019-04-30T23:10:27.895Z,99.90
2019-04-30T23:13:03.781Z,99.90
2019-04-30T23:15:35.193Z,99.90
2019-04-30T23:18:05.697Z,99.90
2019-04-30T23:20:45.787Z,99.90
2019-04-30T23:23:16.823Z,99.90
2019-04-30T23:25:46.911Z,99.90
2019-04-30T23:30:52.495Z,99.90
2019-04-30T23:33:22.615Z,99.90
2019-04-30T23:38:23.601Z,99.90
2019-04-30T23:40:53.967Z,99.90
2019-04-30T23:43:29.841Z,99.90
2019-04-30T23:48:38.712Z,99.90
2019-04-30T23:51:08.799Z,99.90
2019-04-30T23:53:53.975Z,99.90
2019-04-30T23:56:25.040Z,99.90
2019-04-30T23:58:55.131Z,99.90
